F/V Le Lespenhy — FGDY — position and weather

sailwx.info

Track history (hours):
 
Tides and Currents Weather Stations Pressure Air Temp Water Temp Dewpoint Dewpoint Depression Visibility Wind Speed Wind Dir Waves Ship Positions

F/V Le Lespenhy

Last reported at 2017-Nov-22 19:38 UTC. Time now 2017-Nov-23 03:55 UTC.
Position N 47°51' W 003°56'.

Length 15 m.

Type: Fishing. MMSI: 228853000.

Date/timePositionNaut miles runAvg speedWind from/ knotsBaromVisibWave heightAir tempDewpointWater temp
2017-Nov-22 19:38N 47°51' W 003°56'3 8.2
2017-Nov-22 19:17N 47°48' W 003°55'  
2017-Nov-17 23:03N 47°50' W 004°10'0 0.5
2017-Nov-17 22:59N 47°50' W 004°10'5 8.6
2017-Nov-17 22:22N 47°49' W 004°02'3 8.7
2017-Nov-17 22:00N 47°50' W 003°58'25 2.2
2017-Nov-17 10:43N 47°31' W 003°34'1 3.7
2017-Nov-17 10:30N 47°30' W 003°34'9 1.6
2017-Nov-17 04:59N 47°35' W 003°44'0 0.3
2017-Nov-17 04:30N 47°35' W 003°44'0 0.2
2017-Nov-17 04:00N 47°35' W 003°44'0 0.3
2017-Nov-17 03:30N 47°35' W 003°44'3 5.2
2017-Nov-17 03:00N 47°38' W 003°46'3 5.2
2017-Nov-17 02:30N 47°40' W 003°48'3 5.3
2017-Nov-17 02:00N 47°42' W 003°50'3 5.4
2017-Nov-17 01:30N 47°45' W 003°52'3 5.3
2017-Nov-17 00:59N 47°47' W 003°53'3 5.3
2017-Nov-17 00:30N 47°49' W 003°55'20 1.1
2017-Nov-16 07:05N 47°35' W 003°36'0 3.5
2017-Nov-16 07:00N 47°35' W 003°36'2 3.5
2017-Nov-16 06:30N 47°36' W 003°38'2 3.1
2017-Nov-16 06:00N 47°36' W 003°41'3 5.4
2017-Nov-16 05:30N 47°38' W 003°43'3 6.1
2017-Nov-16 05:00N 47°40' W 003°46'3 6.4
2017-Nov-16 04:30N 47°43' W 003°49'3 6.3
2017-Nov-16 04:00N 47°45' W 003°52'3 6.3
2017-Nov-16 03:30N 47°48' W 003°54'4 6.7
2017-Nov-16 02:57N 47°52' W 003°55'1 2.1
2017-Nov-16 02:30N 47°53' W 003°55'2 4.0
2017-Nov-16 02:00N 47°51' W 003°56'3 5.0
2017-Nov-16 01:29N 47°48' W 003°55'3 5.1
2017-Nov-16 00:59N 47°46' W 003°54'3 5.0
2017-Nov-16 00:30N 47°43' W 003°53'3 3.5
2017-Nov-15 23:38N 47°40' W 003°52'0 3.0
2017-Nov-15 23:30N 47°40' W 003°52'2 3.6
2017-Nov-15 22:59N 47°38' W 003°52'2 3.6
2017-Nov-15 22:26N 47°39' W 003°49'2 3.7
2017-Nov-15 22:00N 47°39' W 003°47'2 3.7
2017-Nov-15 21:30N 47°38' W 003°44'2 3.0
2017-Nov-15 21:00N 47°38' W 003°42'1 1.7
2017-Nov-15 20:30N 47°39' W 003°42'1 2.7
2017-Nov-15 20:01N 47°38' W 003°42'2 3.5
2017-Nov-15 19:30N 47°36' W 003°42'3 1.2
2017-Nov-15 16:41N 47°35' W 003°38'1 3.6
2017-Nov-15 16:30N 47°34' W 003°38'1 0.7
2017-Nov-15 15:32N 47°34' W 003°38'0 3.7
2017-Nov-15 15:31N 47°34' W 003°38'2 3.1
2017-Nov-15 15:00N 47°36' W 003°38'1 2.2
2017-Nov-15 14:31N 47°36' W 003°39'1 2.6
2017-Nov-15 14:01N 47°35' W 003°38'2 1.6
2017-Nov-15 12:40N 47°33' W 003°38'1 3.7
2017-Nov-15 12:30N 47°33' W 003°37'1 2.8
2017-Nov-15 12:00N 47°34' W 003°37'2 3.3
2017-Nov-15 11:30N 47°36' W 003°38'1 2.0
2017-Nov-15 11:00N 47°36' W 003°39'1 1.3
2017-Nov-15 09:58N 47°35' W 003°38'1 0.7
2017-Nov-15 08:51N 47°34' W 003°38'1 2.6
2017-Nov-15 08:30N 47°35' W 003°38'2 3.1
2017-Nov-15 08:00N 47°36' W 003°39'2 3.0
2017-Nov-15 07:20N 47°35' W 003°37'1 3.1
2017-Nov-15 07:00N 47°34' W 003°36'1 2.2
2017-Nov-15 06:30N 47°33' W 003°36'1 2.2
2017-Nov-15 06:00N 47°33' W 003°37'2 3.8
2017-Nov-15 05:30N 47°34' W 003°40'4 7.1
2017-Nov-15 05:00N 47°36' W 003°44'4 8.7
2017-Nov-15 04:30N 47°39' W 003°49'4 8.4
2017-Nov-15 04:00N 47°42' W 003°53'5 9.1
2017-Nov-15 03:30N 47°45' W 003°57'4 8.9
2017-Nov-15 03:00N 47°48' W 004°03'6 0.3
2017-Nov-14 06:48N 47°50' W 004°10'3 8.0
2017-Nov-14 06:27N 47°49' W 004°06'4 9.2
2017-Nov-14 06:00N 47°47' W 004°01'5 8.9
2017-Nov-14 05:27N 47°44' W 003°56'4 9.1
2017-Nov-14 05:00N 47°41' W 003°51'5 9.2
2017-Nov-14 04:30N 47°38' W 003°46'5 8.8
2017-Nov-14 03:59N 47°36' W 003°40'3 6.4
2017-Nov-14 03:30N 47°34' W 003°36'0 0.7
2017-Nov-14 03:00N 47°34' W 003°37'5 9.7
2017-Nov-14 02:30N 47°38' W 003°42'5 9.3
2017-Nov-14 02:00N 47°41' W 003°46'5 9.2
2017-Nov-14 01:30N 47°45' W 003°51'5 9.3
2017-Nov-14 01:00N 47°49' W 003°54'3 2.0
2017-Nov-13 23:26N 47°52' W 003°55'4 8.2
2017-Nov-13 22:58N 47°48' W 003°54'4 8.6
2017-Nov-13 22:29N 47°45' W 003°51'4 8.7
2017-Nov-13 22:00N 47°42' W 003°47'  
Track history (hours):
 
Tides and Currents Weather Stations Pressure Air Temp Water Temp Dewpoint Dewpoint Depression Visibility Wind Speed Wind Dir Waves Ship Positions

F/V Le Lespenhy

Last reported at 2017-Nov-22 19:38 UTC. Time now 2017-Nov-23 03:55 UTC.
Position N 47°51' W 003°56'.

Length 15 m.

Type: Fishing. MMSI: 228853000.

Date/timePositionNaut miles runAvg speedWind from/ knotsBaromVisibWave heightAir tempDewpointWater temp
2017-Nov-22 19:38N 47°51' W 003°56'3 8.2
2017-Nov-22 19:17N 47°48' W 003°55'  
2017-Nov-17 23:03N 47°50' W 004°10'0 0.5
2017-Nov-17 22:59N 47°50' W 004°10'5 8.6
2017-Nov-17 22:22N 47°49' W 004°02'3 8.7
2017-Nov-17 22:00N 47°50' W 003°58'25 2.2
2017-Nov-17 10:43N 47°31' W 003°34'1 3.7
2017-Nov-17 10:30N 47°30' W 003°34'9 1.6
2017-Nov-17 04:59N 47°35' W 003°44'0 0.3
2017-Nov-17 04:30N 47°35' W 003°44'0 0.2
2017-Nov-17 04:00N 47°35' W 003°44'0 0.3
2017-Nov-17 03:30N 47°35' W 003°44'3 5.2
2017-Nov-17 03:00N 47°38' W 003°46'3 5.2
2017-Nov-17 02:30N 47°40' W 003°48'3 5.3
2017-Nov-17 02:00N 47°42' W 003°50'3 5.4
2017-Nov-17 01:30N 47°45' W 003°52'3 5.3
2017-Nov-17 00:59N 47°47' W 003°53'3 5.3
2017-Nov-17 00:30N 47°49' W 003°55'20 1.1
2017-Nov-16 07:05N 47°35' W 003°36'0 3.5
2017-Nov-16 07:00N 47°35' W 003°36'2 3.5
2017-Nov-16 06:30N 47°36' W 003°38'2 3.1
2017-Nov-16 06:00N 47°36' W 003°41'3 5.4
2017-Nov-16 05:30N 47°38' W 003°43'3 6.1
2017-Nov-16 05:00N 47°40' W 003°46'3 6.4
2017-Nov-16 04:30N 47°43' W 003°49'3 6.3
2017-Nov-16 04:00N 47°45' W 003°52'3 6.3
2017-Nov-16 03:30N 47°48' W 003°54'4 6.7
2017-Nov-16 02:57N 47°52' W 003°55'1 2.1
2017-Nov-16 02:30N 47°53' W 003°55'2 4.0
2017-Nov-16 02:00N 47°51' W 003°56'3 5.0
2017-Nov-16 01:29N 47°48' W 003°55'3 5.1
2017-Nov-16 00:59N 47°46' W 003°54'3 5.0
2017-Nov-16 00:30N 47°43' W 003°53'3 3.5
2017-Nov-15 23:38N 47°40' W 003°52'0 3.0
2017-Nov-15 23:30N 47°40' W 003°52'2 3.6
2017-Nov-15 22:59N 47°38' W 003°52'2 3.6
2017-Nov-15 22:26N 47°39' W 003°49'2 3.7
2017-Nov-15 22:00N 47°39' W 003°47'2 3.7
2017-Nov-15 21:30N 47°38' W 003°44'2 3.0
2017-Nov-15 21:00N 47°38' W 003°42'1 1.7
2017-Nov-15 20:30N 47°39' W 003°42'1 2.7
2017-Nov-15 20:01N 47°38' W 003°42'2 3.5
2017-Nov-15 19:30N 47°36' W 003°42'3 1.2
2017-Nov-15 16:41N 47°35' W 003°38'1 3.6
2017-Nov-15 16:30N 47°34' W 003°38'1 0.7
2017-Nov-15 15:32N 47°34' W 003°38'0 3.7
2017-Nov-15 15:31N 47°34' W 003°38'2 3.1
2017-Nov-15 15:00N 47°36' W 003°38'1 2.2
2017-Nov-15 14:31N 47°36' W 003°39'1 2.6
2017-Nov-15 14:01N 47°35' W 003°38'2 1.6
2017-Nov-15 12:40N 47°33' W 003°38'1 3.7
2017-Nov-15 12:30N 47°33' W 003°37'1 2.8
2017-Nov-15 12:00N 47°34' W 003°37'2 3.3
2017-Nov-15 11:30N 47°36' W 003°38'1 2.0
2017-Nov-15 11:00N 47°36' W 003°39'1 1.3
2017-Nov-15 09:58N 47°35' W 003°38'1 0.7
2017-Nov-15 08:51N 47°34' W 003°38'1 2.6
2017-Nov-15 08:30N 47°35' W 003°38'2 3.1
2017-Nov-15 08:00N 47°36' W 003°39'2 3.0
2017-Nov-15 07:20N 47°35' W 003°37'1 3.1
2017-Nov-15 07:00N 47°34' W 003°36'1 2.2
2017-Nov-15 06:30N 47°33' W 003°36'1 2.2
2017-Nov-15 06:00N 47°33' W 003°37'2 3.8
2017-Nov-15 05:30N 47°34' W 003°40'4 7.1
2017-Nov-15 05:00N 47°36' W 003°44'4 8.7
2017-Nov-15 04:30N 47°39' W 003°49'4 8.4
2017-Nov-15 04:00N 47°42' W 003°53'5 9.1
2017-Nov-15 03:30N 47°45' W 003°57'4 8.9
2017-Nov-15 03:00N 47°48' W 004°03'6 0.3
2017-Nov-14 06:48N 47°50' W 004°10'3 8.0
2017-Nov-14 06:27N 47°49' W 004°06'4 9.2
2017-Nov-14 06:00N 47°47' W 004°01'5 8.9
2017-Nov-14 05:27N 47°44' W 003°56'4 9.1
2017-Nov-14 05:00N 47°41' W 003°51'5 9.2
2017-Nov-14 04:30N 47°38' W 003°46'5 8.8
2017-Nov-14 03:59N 47°36' W 003°40'3 6.4
2017-Nov-14 03:30N 47°34' W 003°36'0 0.7
2017-Nov-14 03:00N 47°34' W 003°37'5 9.7
2017-Nov-14 02:30N 47°38' W 003°42'5 9.3
2017-Nov-14 02:00N 47°41' W 003°46'5 9.2
2017-Nov-14 01:30N 47°45' W 003°51'5 9.3
2017-Nov-14 01:00N 47°49' W 003°54'3 2.0
2017-Nov-13 23:26N 47°52' W 003°55'4 8.2
2017-Nov-13 22:58N 47°48' W 003°54'4 8.6
2017-Nov-13 22:29N 47°45' W 003°51'4 8.7
2017-Nov-13 22:00N 47°42' W 003°47'  

Dump ship's entire track history